sensor_id;sensor_type;location;lat;lon;timestamp;P1;durP1;ratioP1;P2;durP2;ratioP2
18754;SDS011;35061;47.664;9.166;2023-04-05T00:01:03;5.82;;;2.72;;
18754;SDS011;35061;47.664;9.166;2023-04-05T00:03:34;4.30;;;3.53;;
18754;SDS011;35061;47.664;9.166;2023-04-05T00:06:02;3.33;;;3.03;;
18754;SDS011;35061;47.664;9.166;2023-04-05T00:08:31;3.40;;;3.10;;
18754;SDS011;35061;47.664;9.166;2023-04-05T00:10:59;4.70;;;3.33;;
18754;SDS011;35061;47.664;9.166;2023-04-05T00:13:27;3.97;;;2.90;;
18754;SDS011;35061;47.664;9.166;2023-04-05T00:15:56;4.22;;;3.37;;
18754;SDS011;35061;47.664;9.166;2023-04-05T00:18:27;3.30;;;2.95;;
18754;SDS011;35061;47.664;9.166;2023-04-05T00:21:00;4.53;;;2.92;;
18754;SDS011;35061;47.664;9.166;2023-04-05T00:23:28;4.07;;;3.30;;
18754;SDS011;35061;47.664;9.166;2023-04-05T00:26:04;4.43;;;3.58;;
18754;SDS011;35061;47.664;9.166;2023-04-05T00:28:32;3.45;;;3.10;;
18754;SDS011;35061;47.664;9.166;2023-04-05T00:31:01;3.42;;;3.12;;
18754;SDS011;35061;47.664;9.166;2023-04-05T00:33:30;5.72;;;3.60;;
18754;SDS011;35061;47.664;9.166;2023-04-05T00:36:07;4.07;;;3.30;;
18754;SDS011;35061;47.664;9.166;2023-04-05T00:38:43;3.97;;;3.58;;
18754;SDS011;35061;47.664;9.166;2023-04-05T00:41:11;3.37;;;3.08;;
18754;SDS011;35061;47.664;9.166;2023-04-05T00:43:40;4.28;;;3.12;;
18754;SDS011;35061;47.664;9.166;2023-04-05T00:46:08;3.83;;;3.37;;
18754;SDS011;35061;47.664;9.166;2023-04-05T00:48:37;5.90;;;3.25;;
18754;SDS011;35061;47.664;9.166;2023-04-05T00:51:05;3.72;;;3.17;;
18754;SDS011;35061;47.664;9.166;2023-04-05T00:53:38;3.78;;;3.05;;
18754;SDS011;35061;47.664;9.166;2023-04-05T00:56:07;4.30;;;3.20;;
18754;SDS011;35061;47.664;9.166;2023-04-05T00:58:36;4.68;;;3.10;;
18754;SDS011;35061;47.664;9.166;2023-04-05T01:03:48;6.18;;;3.65;;
18754;SDS011;35061;47.664;9.166;2023-04-05T01:06:45;3.35;;;3.05;;
18754;SDS011;35061;47.664;9.166;2023-04-05T01:09:39;5.10;;;3.22;;
18754;SDS011;35061;47.664;9.166;2023-04-05T01:12:23;5.37;;;3.20;;
18754;SDS011;35061;47.664;9.166;2023-04-05T01:14:54;3.33;;;3.03;;
18754;SDS011;35061;47.664;9.166;2023-04-05T01:17:23;3.70;;;2.90;;
18754;SDS011;35061;47.664;9.166;2023-04-05T01:19:56;3.33;;;2.92;;
18754;SDS011;35061;47.664;9.166;2023-04-05T01:36:23;5.57;;;3.60;;
18754;SDS011;35061;47.664;9.166;2023-04-05T01:38:57;4.68;;;3.03;;
18754;SDS011;35061;47.664;9.166;2023-04-05T01:41:29;3.40;;;3.10;;
18754;SDS011;35061;47.664;9.166;2023-04-05T01:43:58;4.78;;;3.30;;
18754;SDS011;35061;47.664;9.166;2023-04-05T01:46:26;3.25;;;2.80;;
18754;SDS011;35061;47.664;9.166;2023-04-05T01:48:54;3.42;;;3.08;;
18754;SDS011;35061;47.664;9.166;2023-04-05T01:51:22;4.97;;;3.30;;
18754;SDS011;35061;47.664;9.166;2023-04-05T01:53:49;3.65;;;2.62;;
18754;SDS011;35061;47.664;9.166;2023-04-05T01:56:17;3.33;;;2.95;;
18754;SDS011;35061;47.664;9.166;2023-04-05T01:58:45;3.87;;;3.45;;
18754;SDS011;35061;47.664;9.166;2023-04-05T02:01:13;5.00;;;3.70;;
18754;SDS011;35061;47.664;9.166;2023-04-05T02:03:41;4.37;;;3.33;;
18754;SDS011;35061;47.664;9.166;2023-04-05T02:06:10;5.70;;;3.85;;
18754;SDS011;35061;47.664;9.166;2023-04-05T02:08:38;4.18;;;3.22;;
18754;SDS011;35061;47.664;9.166;2023-04-05T02:11:06;4.05;;;3.40;;
18754;SDS011;35061;47.664;9.166;2023-04-05T02:13:33;4.15;;;3.47;;
18754;SDS011;35061;47.664;9.166;2023-04-05T02:16:01;3.50;;;3.20;;
18754;SDS011;35061;47.664;9.166;2023-04-05T02:18:29;5.18;;;3.08;;
18754;SDS011;35061;47.664;9.166;2023-04-05T02:21:01;4.37;;;3.12;;
18754;SDS011;35061;47.664;9.166;2023-04-05T02:23:34;5.03;;;3.55;;
18754;SDS011;35061;47.664;9.166;2023-04-05T02:26:04;3.75;;;3.15;;
18754;SDS011;35061;47.664;9.166;2023-04-05T02:28:32;3.10;;;2.80;;
18754;SDS011;35061;47.664;9.166;2023-04-05T02:31:00;4.35;;;3.20;;
18754;SDS011;35061;47.664;9.166;2023-04-05T02:33:28;3.55;;;2.95;;
18754;SDS011;35061;47.664;9.166;2023-04-05T02:35:57;3.72;;;2.83;;
18754;SDS011;35061;47.664;9.166;2023-04-05T02:38:25;4.35;;;3.53;;
18754;SDS011;35061;47.664;9.166;2023-04-05T02:40:53;3.92;;;3.30;;
18754;SDS011;35061;47.664;9.166;2023-04-05T02:43:21;4.30;;;3.35;;
18754;SDS011;35061;47.664;9.166;2023-04-05T02:45:50;5.50;;;3.15;;
18754;SDS011;35061;47.664;9.166;2023-04-05T02:48:18;5.93;;;3.37;;
18754;SDS011;35061;47.664;9.166;2023-04-05T02:50:49;4.57;;;3.22;;
18754;SDS011;35061;47.664;9.166;2023-04-05T02:53:18;3.55;;;3.20;;
18754;SDS011;35061;47.664;9.166;2023-04-05T02:55:53;4.35;;;3.33;;
18754;SDS011;35061;47.664;9.166;2023-04-05T02:58:23;4.45;;;3.40;;
18754;SDS011;35061;47.664;9.166;2023-04-05T03:00:51;6.15;;;3.45;;
18754;SDS011;35061;47.664;9.166;2023-04-05T03:03:21;6.37;;;3.62;;
18754;SDS011;35061;47.664;9.166;2023-04-05T03:05:56;5.37;;;3.72;;
18754;SDS011;35061;47.664;9.166;2023-04-05T03:08:26;4.57;;;3.75;;
18754;SDS011;35061;47.664;9.166;2023-04-05T03:10:55;4.45;;;3.37;;
18754;SDS011;35061;47.664;9.166;2023-04-05T03:13:23;5.18;;;3.50;;
18754;SDS011;35061;47.664;9.166;2023-04-05T03:15:52;4.47;;;3.58;;
18754;SDS011;35061;47.664;9.166;2023-04-05T03:18:21;4.32;;;3.37;;
18754;SDS011;35061;47.664;9.166;2023-04-05T03:20:52;4.43;;;3.05;;
18754;SDS011;35061;47.664;9.166;2023-04-05T03:23:30;4.97;;;3.83;;
18754;SDS011;35061;47.664;9.166;2023-04-05T03:26:01;5.05;;;3.87;;
18754;SDS011;35061;47.664;9.166;2023-04-05T03:28:30;5.12;;;4.07;;
18754;SDS011;35061;47.664;9.166;2023-04-05T03:31:00;3.70;;;3.35;;
18754;SDS011;35061;47.664;9.166;2023-04-05T03:33:28;5.68;;;3.20;;
18754;SDS011;35061;47.664;9.166;2023-04-05T03:35:56;5.00;;;3.53;;
18754;SDS011;35061;47.664;9.166;2023-04-05T03:38:24;6.50;;;4.15;;
18754;SDS011;35061;47.664;9.166;2023-04-05T03:40:54;4.07;;;3.50;;
18754;SDS011;35061;47.664;9.166;2023-04-05T03:43:22;5.03;;;3.30;;
18754;SDS011;35061;47.664;9.166;2023-04-05T03:45:51;4.15;;;3.75;;
18754;SDS011;35061;47.664;9.166;2023-04-05T03:48:19;6.53;;;4.55;;
18754;SDS011;35061;47.664;9.166;2023-04-05T03:50:48;5.03;;;3.80;;
18754;SDS011;35061;47.664;9.166;2023-04-05T03:53:16;4.43;;;3.42;;
18754;SDS011;35061;47.664;9.166;2023-04-05T03:55:44;3.92;;;3.62;;
18754;SDS011;35061;47.664;9.166;2023-04-05T03:58:15;4.50;;;3.67;;
18754;SDS011;35061;47.664;9.166;2023-04-05T04:00:44;7.28;;;4.18;;
18754;SDS011;35061;47.664;9.166;2023-04-05T04:03:12;4.20;;;3.80;;
18754;SDS011;35061;47.664;9.166;2023-04-05T04:05:40;5.43;;;3.65;;
18754;SDS011;35061;47.664;9.166;2023-04-05T04:08:09;4.93;;;3.90;;
18754;SDS011;35061;47.664;9.166;2023-04-05T04:10:37;6.45;;;4.53;;
18754;SDS011;35061;47.664;9.166;2023-04-05T04:13:05;4.93;;;3.85;;
18754;SDS011;35061;47.664;9.166;2023-04-05T04:15:33;5.97;;;3.95;;
18754;SDS011;35061;47.664;9.166;2023-04-05T04:18:01;6.15;;;4.82;;
18754;SDS011;35061;47.664;9.166;2023-04-05T04:20:29;4.60;;;4.10;;
18754;SDS011;35061;47.664;9.166;2023-04-05T04:22:57;5.70;;;3.80;;
18754;SDS011;35061;47.664;9.166;2023-04-05T04:25:25;4.87;;;4.37;;
18754;SDS011;35061;47.664;9.166;2023-04-05T04:27:57;4.35;;;3.95;;
18754;SDS011;35061;47.664;9.166;2023-04-05T04:30:25;5.53;;;4.65;;
18754;SDS011;35061;47.664;9.166;2023-04-05T04:32:53;5.28;;;3.87;;
18754;SDS011;35061;47.664;9.166;2023-04-05T04:35:25;4.70;;;4.30;;
18754;SDS011;35061;47.664;9.166;2023-04-05T04:37:55;5.95;;;4.35;;
18754;SDS011;35061;47.664;9.166;2023-04-05T04:40:31;4.80;;;4.32;;
18754;SDS011;35061;47.664;9.166;2023-04-05T04:43:06;6.30;;;4.57;;
18754;SDS011;35061;47.664;9.166;2023-04-05T04:45:45;6.28;;;4.15;;
18754;SDS011;35061;47.664;9.166;2023-04-05T04:48:14;4.93;;;4.53;;
18754;SDS011;35061;47.664;9.166;2023-04-05T04:50:43;8.20;;;4.07;;
18754;SDS011;35061;47.664;9.166;2023-04-05T04:53:12;5.15;;;4.28;;
18754;SDS011;35061;47.664;9.166;2023-04-05T04:55:43;5.50;;;4.03;;
18754;SDS011;35061;47.664;9.166;2023-04-05T04:58:12;7.25;;;4.78;;
18754;SDS011;35061;47.664;9.166;2023-04-05T05:00:40;5.03;;;4.07;;
18754;SDS011;35061;47.664;9.166;2023-04-05T05:03:10;4.97;;;4.47;;
18754;SDS011;35061;47.664;9.166;2023-04-05T05:05:47;5.72;;;4.35;;
18754;SDS011;35061;47.664;9.166;2023-04-05T05:08:16;8.45;;;4.68;;
18754;SDS011;35061;47.664;9.166;2023-04-05T05:10:49;6.60;;;4.95;;
18754;SDS011;35061;47.664;9.166;2023-04-05T05:13:21;6.28;;;5.05;;
18754;SDS011;35061;47.664;9.166;2023-04-05T05:15:49;6.68;;;4.80;;
18754;SDS011;35061;47.664;9.166;2023-04-05T05:18:17;6.82;;;4.90;;
18754;SDS011;35061;47.664;9.166;2023-04-05T05:20:48;6.22;;;4.55;;
18754;SDS011;35061;47.664;9.166;2023-04-05T05:23:17;6.15;;;4.72;;
18754;SDS011;35061;47.664;9.166;2023-04-05T05:25:44;7.45;;;4.90;;
18754;SDS011;35061;47.664;9.166;2023-04-05T05:28:12;4.60;;;4.20;;
18754;SDS011;35061;47.664;9.166;2023-04-05T05:30:40;6.03;;;5.12;;
18754;SDS011;35061;47.664;9.166;2023-04-05T05:33:09;6.70;;;4.97;;
18754;SDS011;35061;47.664;9.166;2023-04-05T05:35:37;7.43;;;4.12;;
18754;SDS011;35061;47.664;9.166;2023-04-05T05:38:05;6.78;;;4.50;;
18754;SDS011;35061;47.664;9.166;2023-04-05T05:40:37;6.47;;;4.82;;
18754;SDS011;35061;47.664;9.166;2023-04-05T05:43:05;4.90;;;4.10;;
18754;SDS011;35061;47.664;9.166;2023-04-05T05:45:33;7.85;;;4.97;;
18754;SDS011;35061;47.664;9.166;2023-04-05T05:48:01;8.40;;;5.07;;
18754;SDS011;35061;47.664;9.166;2023-04-05T05:50:30;5.22;;;4.72;;
18754;SDS011;35061;47.664;9.166;2023-04-05T05:52:59;5.65;;;4.62;;
18754;SDS011;35061;47.664;9.166;2023-04-05T05:55:27;6.07;;;4.37;;
18754;SDS011;35061;47.664;9.166;2023-04-05T05:57:55;5.60;;;4.47;;
18754;SDS011;35061;47.664;9.166;2023-04-05T06:00:23;8.13;;;6.20;;
18754;SDS011;35061;47.664;9.166;2023-04-05T06:02:51;6.93;;;5.12;;
18754;SDS011;35061;47.664;9.166;2023-04-05T06:05:20;6.57;;;5.18;;
18754;SDS011;35061;47.664;9.166;2023-04-05T06:07:48;7.47;;;5.60;;
18754;SDS011;35061;47.664;9.166;2023-04-05T06:10:16;8.68;;;5.37;;
18754;SDS011;35061;47.664;9.166;2023-04-05T06:12:44;5.22;;;4.72;;
18754;SDS011;35061;47.664;9.166;2023-04-05T06:15:12;6.97;;;4.93;;
18754;SDS011;35061;47.664;9.166;2023-04-05T06:17:40;6.43;;;5.22;;
18754;SDS011;35061;47.664;9.166;2023-04-05T06:20:09;8.23;;;5.50;;
18754;SDS011;35061;47.664;9.166;2023-04-05T06:22:39;7.30;;;5.05;;
18754;SDS011;35061;47.664;9.166;2023-04-05T06:25:08;6.07;;;5.05;;
18754;SDS011;35061;47.664;9.166;2023-04-05T06:27:36;5.05;;;4.28;;
18754;SDS011;35061;47.664;9.166;2023-04-05T06:30:04;6.80;;;4.97;;
18754;SDS011;35061;47.664;9.166;2023-04-05T06:32:33;7.12;;;5.43;;
18754;SDS011;35061;47.664;9.166;2023-04-05T06:35:01;6.40;;;4.57;;
18754;SDS011;35061;47.664;9.166;2023-04-05T06:37:32;6.57;;;4.62;;
18754;SDS011;35061;47.664;9.166;2023-04-05T06:40:00;6.72;;;3.90;;
18754;SDS011;35061;47.664;9.166;2023-04-05T06:42:28;5.03;;;3.90;;
18754;SDS011;35061;47.664;9.166;2023-04-05T06:44:56;4.75;;;3.78;;
18754;SDS011;35061;47.664;9.166;2023-04-05T06:47:24;6.25;;;3.83;;
18754;SDS011;35061;47.664;9.166;2023-04-05T06:49:52;4.10;;;3.70;;
18754;SDS011;35061;47.664;9.166;2023-04-05T06:52:20;4.37;;;3.85;;
18754;SDS011;35061;47.664;9.166;2023-04-05T06:54:48;4.00;;;3.55;;
18754;SDS011;35061;47.664;9.166;2023-04-05T06:57:17;4.97;;;3.70;;
18754;SDS011;35061;47.664;9.166;2023-04-05T06:59:45;4.07;;;3.60;;
18754;SDS011;35061;47.664;9.166;2023-04-05T07:02:13;4.78;;;3.37;;
18754;SDS011;35061;47.664;9.166;2023-04-05T07:04:41;4.70;;;3.62;;
18754;SDS011;35061;47.664;9.166;2023-04-05T07:07:09;5.15;;;3.50;;
18754;SDS011;35061;47.664;9.166;2023-04-05T07:09:37;4.68;;;3.47;;
18754;SDS011;35061;47.664;9.166;2023-04-05T07:12:06;4.03;;;3.50;;
18754;SDS011;35061;47.664;9.166;2023-04-05T07:14:36;4.10;;;3.70;;
18754;SDS011;35061;47.664;9.166;2023-04-05T07:17:04;3.20;;;2.90;;
18754;SDS011;35061;47.664;9.166;2023-04-05T07:19:33;4.45;;;3.37;;
18754;SDS011;35061;47.664;9.166;2023-04-05T07:22:02;3.42;;;3.12;;
18754;SDS011;35061;47.664;9.166;2023-04-05T07:24:29;5.12;;;3.37;;
18754;SDS011;35061;47.664;9.166;2023-04-05T07:26:58;6.93;;;3.85;;
18754;SDS011;35061;47.664;9.166;2023-04-05T07:29:26;5.00;;;3.60;;
18754;SDS011;35061;47.664;9.166;2023-04-05T07:31:54;6.00;;;3.78;;
18754;SDS011;35061;47.664;9.166;2023-04-05T07:34:22;5.28;;;4.00;;
18754;SDS011;35061;47.664;9.166;2023-04-05T07:36:50;6.45;;;4.05;;
18754;SDS011;35061;47.664;9.166;2023-04-05T07:39:18;5.32;;;4.15;;
18754;SDS011;35061;47.664;9.166;2023-04-05T07:41:48;4.55;;;3.50;;
18754;SDS011;35061;47.664;9.166;2023-04-05T07:44:16;3.85;;;3.50;;
18754;SDS011;35061;47.664;9.166;2023-04-05T07:46:44;5.07;;;3.45;;
18754;SDS011;35061;47.664;9.166;2023-04-05T07:49:14;4.60;;;4.03;;
18754;SDS011;35061;47.664;9.166;2023-04-05T07:51:42;6.00;;;3.85;;
18754;SDS011;35061;47.664;9.166;2023-04-05T07:54:10;5.03;;;3.42;;
18754;SDS011;35061;47.664;9.166;2023-04-05T07:56:38;3.97;;;3.42;;
18754;SDS011;35061;47.664;9.166;2023-04-05T07:59:06;6.55;;;3.53;;
18754;SDS011;35061;47.664;9.166;2023-04-05T08:01:36;4.55;;;3.40;;
18754;SDS011;35061;47.664;9.166;2023-04-05T08:04:04;5.72;;;3.58;;
18754;SDS011;35061;47.664;9.166;2023-04-05T08:06:32;5.40;;;3.42;;
18754;SDS011;35061;47.664;9.166;2023-04-05T08:09:01;3.97;;;3.35;;
18754;SDS011;35061;47.664;9.166;2023-04-05T08:11:32;3.78;;;3.37;;
18754;SDS011;35061;47.664;9.166;2023-04-05T08:14:00;5.93;;;3.35;;
18754;SDS011;35061;47.664;9.166;2023-04-05T08:16:28;3.87;;;3.58;;
18754;SDS011;35061;47.664;9.166;2023-04-05T08:18:56;4.65;;;3.80;;
18754;SDS011;35061;47.664;9.166;2023-04-05T08:21:24;5.55;;;3.90;;
18754;SDS011;35061;47.664;9.166;2023-04-05T08:23:53;5.75;;;3.40;;
18754;SDS011;35061;47.664;9.166;2023-04-05T08:26:21;4.50;;;4.10;;
18754;SDS011;35061;47.664;9.166;2023-04-05T08:28:49;4.32;;;3.80;;
18754;SDS011;35061;47.664;9.166;2023-04-05T08:31:17;6.22;;;3.83;;
18754;SDS011;35061;47.664;9.166;2023-04-05T08:33:45;4.65;;;3.83;;
18754;SDS011;35061;47.664;9.166;2023-04-05T08:36:13;5.75;;;4.00;;
18754;SDS011;35061;47.664;9.166;2023-04-05T08:38:41;4.53;;;4.05;;
18754;SDS011;35061;47.664;9.166;2023-04-05T08:41:19;3.97;;;3.67;;
18754;SDS011;35061;47.664;9.166;2023-04-05T08:44:00;4.78;;;4.03;;
18754;SDS011;35061;47.664;9.166;2023-04-05T08:46:32;4.45;;;3.47;;
18754;SDS011;35061;47.664;9.166;2023-04-05T08:49:04;6.82;;;3.60;;
18754;SDS011;35061;47.664;9.166;2023-04-05T08:51:38;4.62;;;3.87;;
18754;SDS011;35061;47.664;9.166;2023-04-05T08:54:06;5.53;;;4.10;;
18754;SDS011;35061;47.664;9.166;2023-04-05T08:56:34;4.30;;;3.72;;
18754;SDS011;35061;47.664;9.166;2023-04-05T08:59:07;5.45;;;4.28;;
18754;SDS011;35061;47.664;9.166;2023-04-05T09:01:40;5.97;;;4.12;;
18754;SDS011;35061;47.664;9.166;2023-04-05T09:04:20;5.32;;;3.75;;
18754;SDS011;35061;47.664;9.166;2023-04-05T09:06:50;5.90;;;4.12;;
18754;SDS011;35061;47.664;9.166;2023-04-05T09:09:19;4.60;;;4.20;;
18754;SDS011;35061;47.664;9.166;2023-04-05T09:11:48;5.57;;;4.03;;
18754;SDS011;35061;47.664;9.166;2023-04-05T09:14:16;4.10;;;3.67;;
18754;SDS011;35061;47.664;9.166;2023-04-05T09:16:47;4.75;;;3.17;;
18754;SDS011;35061;47.664;9.166;2023-04-05T09:19:15;4.18;;;3.33;;
18754;SDS011;35061;47.664;9.166;2023-04-05T09:27:03;7.47;;;3.55;;
18754;SDS011;35061;47.664;9.166;2023-04-05T09:29:42;4.72;;;4.28;;
18754;SDS011;35061;47.664;9.166;2023-04-05T09:32:11;4.85;;;4.12;;
18754;SDS011;35061;47.664;9.166;2023-04-05T09:34:40;4.62;;;3.78;;
18754;SDS011;35061;47.664;9.166;2023-04-05T09:39:44;5.70;;;3.78;;
18754;SDS011;35061;47.664;9.166;2023-04-05T09:42:17;4.20;;;3.58;;
18754;SDS011;35061;47.664;9.166;2023-04-05T09:47:29;7.57;;;3.65;;
18754;SDS011;35061;47.664;9.166;2023-04-05T09:49:59;5.22;;;4.00;;
18754;SDS011;35061;47.664;9.166;2023-04-05T09:52:29;3.90;;;3.60;;
18754;SDS011;35061;47.664;9.166;2023-04-05T09:55:01;4.45;;;3.90;;
18754;SDS011;35061;47.664;9.166;2023-04-05T09:57:37;4.85;;;3.78;;
18754;SDS011;35061;47.664;9.166;2023-04-05T10:00:15;6.47;;;4.45;;
18754;SDS011;35061;47.664;9.166;2023-04-05T10:02:45;5.82;;;4.35;;
18754;SDS011;35061;47.664;9.166;2023-04-05T10:05:14;4.32;;;3.92;;
18754;SDS011;35061;47.664;9.166;2023-04-05T10:07:42;6.25;;;4.65;;
18754;SDS011;35061;47.664;9.166;2023-04-05T10:10:11;4.78;;;4.20;;
18754;SDS011;35061;47.664;9.166;2023-04-05T10:12:39;4.40;;;4.00;;
18754;SDS011;35061;47.664;9.166;2023-04-05T10:15:08;4.30;;;3.87;;
18754;SDS011;35061;47.664;9.166;2023-04-05T10:20:30;4.20;;;3.42;;
18754;SDS011;35061;47.664;9.166;2023-04-05T10:23:07;5.82;;;4.35;;
18754;SDS011;35061;47.664;9.166;2023-04-05T10:28:33;5.28;;;4.25;;
18754;SDS011;35061;47.664;9.166;2023-04-05T10:34:30;7.97;;;4.43;;
18754;SDS011;35061;47.664;9.166;2023-04-05T10:37:06;4.28;;;3.87;;
18754;SDS011;35061;47.664;9.166;2023-04-05T10:39:43;3.85;;;3.53;;
18754;SDS011;35061;47.664;9.166;2023-04-05T10:42:20;4.80;;;4.05;;
18754;SDS011;35061;47.664;9.166;2023-04-05T10:44:52;7.40;;;4.00;;
18754;SDS011;35061;47.664;9.166;2023-04-05T10:47:27;6.00;;;4.30;;
18754;SDS011;35061;47.664;9.166;2023-04-05T10:49:59;4.47;;;3.92;;
18754;SDS011;35061;47.664;9.166;2023-04-05T10:52:35;4.75;;;3.55;;
18754;SDS011;35061;47.664;9.166;2023-04-05T10:55:03;6.35;;;4.20;;
18754;SDS011;35061;47.664;9.166;2023-04-05T10:57:32;5.43;;;4.10;;
18754;SDS011;35061;47.664;9.166;2023-04-05T11:00:01;5.28;;;4.20;;
18754;SDS011;35061;47.664;9.166;2023-04-05T11:02:30;5.07;;;3.90;;
18754;SDS011;35061;47.664;9.166;2023-04-05T11:05:02;4.35;;;3.95;;
18754;SDS011;35061;47.664;9.166;2023-04-05T11:07:43;5.35;;;4.10;;
18754;SDS011;35061;47.664;9.166;2023-04-05T11:10:17;4.07;;;3.67;;
18754;SDS011;35061;47.664;9.166;2023-04-05T11:20:48;4.18;;;3.78;;
18754;SDS011;35061;47.664;9.166;2023-04-05T11:23:23;5.15;;;4.28;;
18754;SDS011;35061;47.664;9.166;2023-04-05T11:25:55;4.47;;;4.07;;
18754;SDS011;35061;47.664;9.166;2023-04-05T11:28:36;4.87;;;4.15;;
18754;SDS011;35061;47.664;9.166;2023-04-05T11:31:16;4.87;;;4.05;;
18754;SDS011;35061;47.664;9.166;2023-04-05T11:41:45;5.05;;;4.25;;
18754;SDS011;35061;47.664;9.166;2023-04-05T11:44:14;4.95;;;3.72;;
18754;SDS011;35061;47.664;9.166;2023-04-05T11:46:44;4.68;;;4.03;;
18754;SDS011;35061;47.664;9.166;2023-04-05T11:49:13;4.22;;;3.85;;
18754;SDS011;35061;47.664;9.166;2023-04-05T11:51:41;5.50;;;4.25;;
18754;SDS011;35061;47.664;9.166;2023-04-05T11:54:09;4.50;;;4.10;;
18754;SDS011;35061;47.664;9.166;2023-04-05T11:56:38;5.20;;;3.90;;
18754;SDS011;35061;47.664;9.166;2023-04-05T11:59:06;4.22;;;3.83;;
18754;SDS011;35061;47.664;9.166;2023-04-05T12:01:34;6.12;;;3.92;;
18754;SDS011;35061;47.664;9.166;2023-04-05T12:04:02;4.35;;;3.70;;
18754;SDS011;35061;47.664;9.166;2023-04-05T12:06:34;5.90;;;4.07;;
18754;SDS011;35061;47.664;9.166;2023-04-05T12:09:02;4.72;;;4.00;;
18754;SDS011;35061;47.664;9.166;2023-04-05T12:11:33;4.47;;;4.07;;
18754;SDS011;35061;47.664;9.166;2023-04-05T12:14:01;4.45;;;3.95;;
18754;SDS011;35061;47.664;9.166;2023-04-05T12:16:30;6.85;;;3.80;;
18754;SDS011;35061;47.664;9.166;2023-04-05T12:18:59;5.12;;;4.55;;
18754;SDS011;35061;47.664;9.166;2023-04-05T12:21:27;4.50;;;4.00;;
18754;SDS011;35061;47.664;9.166;2023-04-05T12:23:55;4.90;;;4.10;;
18754;SDS011;35061;47.664;9.166;2023-04-05T12:26:24;4.50;;;4.10;;
18754;SDS011;35061;47.664;9.166;2023-04-05T12:28:54;6.03;;;4.00;;
18754;SDS011;35061;47.664;9.166;2023-04-05T12:31:41;6.03;;;4.25;;
18754;SDS011;35061;47.664;9.166;2023-04-05T12:34:11;4.60;;;3.90;;
18754;SDS011;35061;47.664;9.166;2023-04-05T12:36:44;4.40;;;3.97;;
18754;SDS011;35061;47.664;9.166;2023-04-05T12:39:14;5.28;;;4.25;;
18754;SDS011;35061;47.664;9.166;2023-04-05T12:41:43;4.32;;;3.92;;
18754;SDS011;35061;47.664;9.166;2023-04-05T12:44:13;4.55;;;3.72;;
18754;SDS011;35061;47.664;9.166;2023-04-05T12:46:43;4.45;;;4.05;;
18754;SDS011;35061;47.664;9.166;2023-04-05T12:49:13;5.00;;;4.47;;
18754;SDS011;35061;47.664;9.166;2023-04-05T12:51:43;5.10;;;4.40;;
18754;SDS011;35061;47.664;9.166;2023-04-05T12:54:13;5.85;;;3.90;;
18754;SDS011;35061;47.664;9.166;2023-04-05T12:56:51;6.07;;;3.97;;
18754;SDS011;35061;47.664;9.166;2023-04-05T12:59:21;5.07;;;4.57;;
18754;SDS011;35061;47.664;9.166;2023-04-05T13:01:50;5.05;;;4.57;;
18754;SDS011;35061;47.664;9.166;2023-04-05T13:04:18;4.40;;;4.00;;
18754;SDS011;35061;47.664;9.166;2023-04-05T13:06:46;5.37;;;4.05;;
18754;SDS011;35061;47.664;9.166;2023-04-05T13:09:14;5.50;;;3.95;;
18754;SDS011;35061;47.664;9.166;2023-04-05T13:11:42;7.50;;;4.25;;
18754;SDS011;35061;47.664;9.166;2023-04-05T13:14:10;4.40;;;4.00;;
18754;SDS011;35061;47.664;9.166;2023-04-05T13:16:38;6.68;;;4.50;;
18754;SDS011;35061;47.664;9.166;2023-04-05T13:19:06;4.47;;;4.07;;
18754;SDS011;35061;47.664;9.166;2023-04-05T13:21:34;4.47;;;3.87;;
18754;SDS011;35061;47.664;9.166;2023-04-05T13:24:02;4.75;;;4.32;;
18754;SDS011;35061;47.664;9.166;2023-04-05T13:26:30;4.10;;;3.67;;
18754;SDS011;35061;47.664;9.166;2023-04-05T13:28:58;6.20;;;4.07;;
18754;SDS011;35061;47.664;9.166;2023-04-05T13:31:26;4.30;;;3.90;;
18754;SDS011;35061;47.664;9.166;2023-04-05T13:33:54;4.32;;;3.55;;
18754;SDS011;35061;47.664;9.166;2023-04-05T13:36:22;4.47;;;4.00;;
18754;SDS011;35061;47.664;9.166;2023-04-05T13:38:50;4.40;;;3.78;;
18754;SDS011;35061;47.664;9.166;2023-04-05T13:41:18;4.15;;;3.85;;
18754;SDS011;35061;47.664;9.166;2023-04-05T13:43:46;4.72;;;3.78;;
18754;SDS011;35061;47.664;9.166;2023-04-05T13:46:14;4.78;;;4.25;;
18754;SDS011;35061;47.664;9.166;2023-04-05T13:48:42;8.75;;;4.65;;
18754;SDS011;35061;47.664;9.166;2023-04-05T13:51:10;5.35;;;4.07;;
18754;SDS011;35061;47.664;9.166;2023-04-05T13:53:38;5.35;;;4.47;;
18754;SDS011;35061;47.664;9.166;2023-04-05T13:56:06;4.03;;;3.67;;
18754;SDS011;35061;47.664;9.166;2023-04-05T13:58:34;5.10;;;4.12;;
18754;SDS011;35061;47.664;9.166;2023-04-05T14:01:02;4.22;;;3.83;;
18754;SDS011;35061;47.664;9.166;2023-04-05T14:03:30;4.82;;;3.75;;
18754;SDS011;35061;47.664;9.166;2023-04-05T14:05:58;4.22;;;3.83;;
18754;SDS011;35061;47.664;9.166;2023-04-05T14:08:26;4.32;;;3.90;;
18754;SDS011;35061;47.664;9.166;2023-04-05T14:10:54;4.28;;;3.87;;
18754;SDS011;35061;47.664;9.166;2023-04-05T14:13:22;4.78;;;4.22;;
18754;SDS011;35061;47.664;9.166;2023-04-05T14:15:50;6.53;;;4.18;;
18754;SDS011;35061;47.664;9.166;2023-04-05T14:18:19;3.85;;;3.42;;
18754;SDS011;35061;47.664;9.166;2023-04-05T14:20:47;5.37;;;3.97;;
18754;SDS011;35061;47.664;9.166;2023-04-05T14:23:15;9.82;;;4.30;;
18754;SDS011;35061;47.664;9.166;2023-04-05T14:25:43;4.50;;;4.10;;
18754;SDS011;35061;47.664;9.166;2023-04-05T14:28:11;6.10;;;4.87;;
18754;SDS011;35061;47.664;9.166;2023-04-05T14:30:39;5.35;;;4.10;;
18754;SDS011;35061;47.664;9.166;2023-04-05T14:33:07;5.15;;;4.55;;
18754;SDS011;35061;47.664;9.166;2023-04-05T14:35:35;4.53;;;4.12;;
18754;SDS011;35061;47.664;9.166;2023-04-05T14:38:03;5.28;;;4.78;;
18754;SDS011;35061;47.664;9.166;2023-04-05T14:40:32;5.37;;;4.43;;
18754;SDS011;35061;47.664;9.166;2023-04-05T14:43:00;5.18;;;4.55;;
18754;SDS011;35061;47.664;9.166;2023-04-05T14:45:28;4.65;;;4.20;;
18754;SDS011;35061;47.664;9.166;2023-04-05T14:47:56;4.45;;;4.05;;
18754;SDS011;35061;47.664;9.166;2023-04-05T14:50:25;5.40;;;4.62;;
18754;SDS011;35061;47.664;9.166;2023-04-05T14:52:53;5.18;;;4.68;;
18754;SDS011;35061;47.664;9.166;2023-04-05T14:55:21;3.87;;;3.58;;
18754;SDS011;35061;47.664;9.166;2023-04-05T14:57:49;4.30;;;3.90;;
18754;SDS011;35061;47.664;9.166;2023-04-05T15:00:17;5.45;;;3.97;;
18754;SDS011;35061;47.664;9.166;2023-04-05T15:02:46;4.60;;;3.97;;
18754;SDS011;35061;47.664;9.166;2023-04-05T15:05:15;4.30;;;3.65;;
18754;SDS011;35061;47.664;9.166;2023-04-05T15:07:43;5.35;;;3.67;;
18754;SDS011;35061;47.664;9.166;2023-04-05T15:10:11;5.15;;;3.53;;
18754;SDS011;35061;47.664;9.166;2023-04-05T15:12:39;4.82;;;4.32;;
18754;SDS011;35061;47.664;9.166;2023-04-05T15:15:07;4.75;;;4.22;;
18754;SDS011;35061;47.664;9.166;2023-04-05T15:17:35;4.28;;;3.87;;
18754;SDS011;35061;47.664;9.166;2023-04-05T15:20:03;4.37;;;3.97;;
18754;SDS011;35061;47.664;9.166;2023-04-05T15:22:31;5.05;;;4.55;;
18754;SDS011;35061;47.664;9.166;2023-04-05T15:25:00;4.18;;;3.72;;
18754;SDS011;35061;47.664;9.166;2023-04-05T15:27:28;5.07;;;4.68;;
18754;SDS011;35061;47.664;9.166;2023-04-05T15:29:56;6.87;;;4.60;;
18754;SDS011;35061;47.664;9.166;2023-04-05T15:32:24;4.32;;;3.67;;
18754;SDS011;35061;47.664;9.166;2023-04-05T15:34:52;5.28;;;4.62;;
18754;SDS011;35061;47.664;9.166;2023-04-05T15:37:20;5.05;;;4.03;;
18754;SDS011;35061;47.664;9.166;2023-04-05T15:39:48;5.03;;;3.58;;
18754;SDS011;35061;47.664;9.166;2023-04-05T15:42:16;4.20;;;3.80;;
18754;SDS011;35061;47.664;9.166;2023-04-05T15:44:45;4.25;;;3.85;;
18754;SDS011;35061;47.664;9.166;2023-04-05T15:47:13;5.47;;;4.15;;
18754;SDS011;35061;47.664;9.166;2023-04-05T15:49:41;4.45;;;4.00;;
18754;SDS011;35061;47.664;9.166;2023-04-05T15:52:12;5.70;;;4.07;;
18754;SDS011;35061;47.664;9.166;2023-04-05T15:54:41;6.55;;;4.53;;